UACC 181700Z VRB01MPS 9999 SCT030 19/17 Q1003 NOSIG RMK QFE721/0962
QNH:(hPa/inHg/mmHg)1003 / 29.62 / 752
QFE:(hPa/inHg/mmHg)960 / 28.34 / 720
Temperature19
Dew Point17
Visibility> 10000
Weather
Cloud CoverSCT (3000);
Transition Altitude10000 ft.
Transition LevelFL120
SQUAWK